createdAt,value
2023-04-02T00:01:06.490Z,1012.99
2023-04-02T00:11:12.055Z,1013.19
2023-04-02T00:21:17.237Z,1013.24
2023-04-02T00:31:22.431Z,1013.33
2023-04-02T00:41:27.938Z,1013.52
2023-04-02T00:51:33.656Z,1013.61
2023-04-02T01:01:39.111Z,1013.79
2023-04-02T01:11:44.380Z,1013.88
2023-04-02T01:21:49.618Z,1014.09
2023-04-02T01:31:55.002Z,1014.23
2023-04-02T01:42:00.312Z,1014.37
2023-04-02T01:52:05.503Z,1014.48
2023-04-02T02:02:10.892Z,1014.73
2023-04-02T02:12:16.543Z,1014.82
2023-04-02T02:22:21.657Z,1015.04
2023-04-02T02:32:26.743Z,1015.18
2023-04-02T02:42:32.357Z,1015.31
2023-04-02T02:52:37.865Z,1015.50
2023-04-02T03:02:44.907Z,1015.62
2023-04-02T03:12:50.230Z,1015.89
2023-04-02T03:22:55.344Z,1016.07
2023-04-02T03:33:00.420Z,1016.27
2023-04-02T03:43:05.168Z,1016.35
2023-04-02T03:53:10.749Z,1016.53
2023-04-02T04:03:16.045Z,1016.71
2023-04-02T04:13:21.402Z,1016.93
2023-04-02T04:23:26.399Z,1017.16
2023-04-02T04:33:31.685Z,1017.25
2023-04-02T04:43:36.897Z,1017.47
2023-04-02T04:53:42.082Z,1017.61
2023-04-02T05:03:47.171Z,1017.80
2023-04-02T05:13:52.744Z,1017.98
2023-04-02T05:23:57.670Z,1018.09
2023-04-02T05:34:02.852Z,1018.28
2023-04-02T05:44:08.598Z,1018.47
2023-04-02T05:54:14.021Z,1018.63
2023-04-02T06:04:18.958Z,1018.82
2023-04-02T06:14:24.427Z,1018.96
2023-04-02T06:24:29.574Z,1019.11
2023-04-02T06:34:34.749Z,1019.35
2023-04-02T06:44:40.297Z,1019.42
2023-04-02T06:54:45.609Z,1019.72
2023-04-02T07:04:50.914Z,1019.89
2023-04-02T07:14:56.446Z,1020.01
2023-04-02T07:25:01.689Z,1020.07
2023-04-02T07:35:07.090Z,1020.16
2023-04-02T07:45:12.068Z,1020.29
2023-04-02T07:55:17.363Z,1020.44
2023-04-02T08:05:22.687Z,1020.66
2023-04-02T08:15:27.752Z,1020.76
2023-04-02T08:25:33.547Z,1020.81
2023-04-02T08:35:39.740Z,1020.98
2023-04-02T08:45:45.125Z,1021.20
2023-04-02T08:55:50.890Z,1021.22
2023-04-02T09:05:56.605Z,1021.50
2023-04-02T09:16:01.472Z,1021.70
2023-04-02T09:26:07.289Z,1021.75
2023-04-02T09:36:15.073Z,1021.80
2023-04-02T09:46:21.584Z,1022.03
2023-04-02T09:56:27.292Z,1022.14
2023-04-02T10:06:32.833Z,1022.26
2023-04-02T10:16:38.335Z,1022.41
2023-04-02T10:26:44.021Z,1022.54
2023-04-02T10:36:50.013Z,1022.55
2023-04-02T10:46:55.792Z,1022.73
2023-04-02T10:57:01.315Z,1022.86
2023-04-02T11:07:13.850Z,1023.03
2023-04-02T11:17:16.785Z,1023.17
2023-04-02T11:27:22.358Z,1023.33
2023-04-02T11:37:27.258Z,1023.48
2023-04-02T11:47:32.668Z,1023.52
2023-04-02T11:57:38.438Z,1023.70
2023-04-02T12:07:43.703Z,1023.70
2023-04-02T12:17:48.900Z,1023.73
2023-04-02T12:27:54.304Z,1023.80
2023-04-02T12:37:59.656Z,1023.93
2023-04-02T12:48:05.299Z,1023.95
2023-04-02T12:58:10.982Z,1023.95
2023-04-02T13:08:16.209Z,1024.06
2023-04-02T13:18:21.474Z,1024.02
2023-04-02T13:28:26.748Z,1024.08
2023-04-02T13:38:32.406Z,1024.07
2023-04-02T13:48:37.534Z,1024.23
2023-04-02T13:58:43.129Z,1024.29
2023-04-02T14:08:48.605Z,1024.29
2023-04-02T14:18:54.031Z,1024.34
2023-04-02T14:28:59.618Z,1024.51
2023-04-02T14:39:04.710Z,1024.61
2023-04-02T14:49:10.298Z,1024.68
2023-04-02T14:59:15.319Z,1024.77
2023-04-02T15:09:21.057Z,1024.83
2023-04-02T15:19:26.775Z,1024.87
2023-04-02T15:29:32.328Z,1025.13
2023-04-02T15:39:37.856Z,1025.24
2023-04-02T15:49:43.496Z,1025.36
2023-04-02T15:59:49.009Z,1025.54
2023-04-02T16:09:55.402Z,1025.66
2023-04-02T16:20:02.120Z,1025.83
2023-04-02T16:30:07.349Z,1025.98
2023-04-02T16:40:12.893Z,1026.15
2023-04-02T16:50:18.395Z,1026.37
2023-04-02T17:00:24.105Z,1026.46
2023-04-02T17:10:30.271Z,1026.63
2023-04-02T17:20:35.866Z,1026.67
2023-04-02T17:30:41.684Z,1026.89
2023-04-02T17:40:46.732Z,1027.05
2023-04-02T17:50:52.197Z,1027.24
2023-04-02T18:00:57.634Z,1027.36
2023-04-02T18:11:04.115Z,1027.49
2023-04-02T18:21:09.177Z,1027.62
2023-04-02T18:31:14.854Z,1027.80
2023-04-02T18:41:21.008Z,1028.00
2023-04-02T18:51:26.523Z,1028.21
2023-04-02T19:01:32.092Z,1028.34
2023-04-02T19:11:37.485Z,1028.54
2023-04-02T19:21:43.081Z,1028.67
2023-04-02T19:31:48.067Z,1028.85
2023-04-02T19:41:53.559Z,1028.97
2023-04-02T19:51:58.857Z,1029.08
2023-04-02T20:02:04.041Z,1029.21
2023-04-02T20:12:09.406Z,1029.30
2023-04-02T20:22:14.431Z,1029.39
2023-04-02T20:32:20.014Z,1029.55
2023-04-02T20:42:25.497Z,1029.63
2023-04-02T20:52:30.578Z,1029.80
2023-04-02T21:02:35.589Z,1029.89
2023-04-02T21:14:00.930Z,1029.91
2023-04-02T21:24:05.394Z,1030.01
2023-04-02T21:34:10.651Z,1030.15
2023-04-02T21:44:16.186Z,1030.23
2023-04-02T21:54:21.889Z,1030.31
2023-04-02T22:04:26.993Z,1030.46
2023-04-02T22:14:32.755Z,1030.57
2023-04-02T22:24:38.002Z,1030.60
2023-04-02T22:34:43.221Z,1030.65
2023-04-02T22:44:48.519Z,1030.73
2023-04-02T22:54:53.738Z,1030.92
2023-04-02T23:04:59.255Z,1031.05
2023-04-02T23:15:04.736Z,1031.12
2023-04-02T23:25:09.851Z,1031.21
2023-04-02T23:35:15.022Z,1031.23
2023-04-02T23:45:20.245Z,1031.31
2023-04-02T23:55:25.862Z,1031.32
